Time;durP1;ratioP1;P1;durP2;ratioP2;P2;SDS_P1;SDS_P2;PMS_P1;PMS_P2;Temp;Humidity;BMP_temperature;BMP_pressure;BME280_temperature;BME280_humidity;BME280_pressure;Samples;Min_cycle;Max_cycle;Signal;HPM_P1;HPM_P2
2023/01/04 00:01:01;;;;;;;99.32;38.30;;;3.50;99.90;;;;;;4953465;29;20126;-72
2023/01/04 00:03:32;;;;;;;96.03;36.97;;;3.50;99.90;;;;;;4937336;29;20432;-73
2023/01/04 00:06:06;;;;;;;80.75;39.03;;;3.50;99.90;;;;;;4921498;29;20442;-73
2023/01/04 00:08:34;;;;;;;97.30;38.00;;;3.40;99.90;;;;;;4954321;29;20051;-79
2023/01/04 00:11:09;;;;;;;88.22;37.33;;;3.50;99.90;;;;;;4953652;29;20467;-73
2023/01/04 00:13:40;;;;;;;85.03;37.97;;;3.50;99.90;;;;;;4923116;29;20058;-77
2023/01/04 00:16:15;;;;;;;85.80;35.45;;;3.60;99.90;;;;;;4953678;29;20050;-74
2023/01/04 00:18:43;;;;;;;84.20;38.33;;;3.60;99.90;;;;;;4954176;29;20082;-75
2023/01/04 00:21:23;;;;;;;89.20;39.63;;;3.50;99.90;;;;;;4945679;29;20059;-75
2023/01/04 00:23:58;;;;;;;85.80;37.03;;;3.40;99.90;;;;;;4941694;29;20066;-81
2023/01/04 00:26:28;;;;;;;84.28;37.47;;;3.40;99.90;;;;;;4941631;29;20055;-78
2023/01/04 00:29:02;;;;;;;95.78;37.53;;;3.40;99.90;;;;;;4938378;28;20534;-75
2023/01/04 00:31:29;;;;;;;199.23;40.97;;;3.40;99.90;;;;;;4976068;28;20050;-74
2023/01/04 00:34:03;;;;;;;92.78;35.97;;;3.40;99.90;;;;;;4943972;28;20043;-79
2023/01/04 00:36:31;;;;;;;77.57;36.17;;;3.30;99.90;;;;;;4943444;28;20086;-75
2023/01/04 00:39:07;;;;;;;80.53;35.35;;;3.40;99.90;;;;;;4957977;28;20046;-75
2023/01/04 00:45:09;;;;;;;74.47;33.95;;;3.40;99.90;;;;;;4977995;28;20043;-81
2023/01/04 00:47:39;;;;;;;81.07;34.92;;;3.40;99.90;;;;;;4977262;28;20043;-83
2023/01/04 00:50:12;;;;;;;74.47;34.03;;;3.40;99.90;;;;;;4977775;28;20039;-78
2023/01/04 00:53:22;;;;;;;59.58;32.33;;;3.30;99.90;;;;;;4956308;29;20142;-76
2023/01/04 00:56:16;;;;;;;79.95;35.53;;;3.30;99.90;;;;;;4947706;29;20051;-83
2023/01/04 00:58:43;;;;;;;74.38;33.92;;;3.30;99.90;;;;;;4957990;29;20055;-75
2023/01/04 01:01:11;;;;;;;86.30;34.30;;;3.20;99.90;;;;;;4955440;29;20142;-83
2023/01/04 01:03:39;;;;;;;118.00;35.25;;;3.30;99.90;;;;;;4938975;29;20495;-82
2023/01/04 01:06:08;;;;;;;71.97;33.47;;;3.20;99.90;;;;;;4976171;28;20061;-82
2023/01/04 01:08:56;;;;;;;80.60;35.55;;;3.20;99.90;;;;;;4978149;28;20517;-74
2023/01/04 01:11:56;;;;;;;70.55;33.72;;;3.30;99.90;;;;;;4981036;28;20042;-75
2023/01/04 01:14:40;;;;;;;69.65;33.38;;;3.30;99.90;;;;;;4976536;28;20398;-77
2023/01/04 01:17:24;;;;;;;69.70;33.17;;;3.30;99.90;;;;;;5003966;28;20061;-77
2023/01/04 01:19:51;;;;;;;79.00;33.25;;;3.30;99.90;;;;;;5017554;28;20042;-72
2023/01/04 01:22:18;;;;;;;70.00;31.80;;;3.30;99.90;;;;;;5016721;28;20049;-83
2023/01/04 01:24:46;;;;;;;102.43;35.13;;;3.20;99.90;;;;;;5016886;28;20065;-83
2023/01/04 01:28:05;;;;;;;100.63;33.95;;;3.20;99.90;;;;;;5017182;28;20127;-74
2023/01/04 01:30:41;;;;;;;69.13;32.97;;;2.90;99.90;;;;;;5001807;28;20128;-76
2023/01/04 01:33:42;;;;;;;72.25;33.30;;;3.00;99.90;;;;;;4998449;28;20056;-74
2023/01/04 01:36:10;;;;;;;67.15;31.70;;;3.10;99.90;;;;;;5000244;28;20057;-76
2023/01/04 01:38:39;;;;;;;78.07;34.05;;;3.20;99.90;;;;;;5016774;28;20052;-78
2023/01/04 01:41:20;;;;;;;65.22;32.40;;;3.20;99.90;;;;;;5017649;28;20066;-76
2023/01/04 01:44:44;;;;;;;67.30;31.70;;;3.30;99.90;;;;;;5002204;28;20084;-83
2023/01/04 01:47:28;;;;;;;94.80;32.30;;;3.40;99.90;;;;;;4999434;28;20049;-77
2023/01/04 01:49:55;;;;;;;64.38;32.45;;;3.30;99.90;;;;;;5016814;28;20038;-76
2023/01/04 01:52:35;;;;;;;71.00;34.03;;;3.30;99.90;;;;;;5015791;28;20088;-75
2023/01/04 01:55:16;;;;;;;67.03;31.45;;;3.40;99.90;;;;;;5015503;28;20050;-75
2023/01/04 01:57:57;;;;;;;64.78;29.95;;;3.40;99.90;;;;;;4999386;28;20425;-75
2023/01/04 02:00:41;;;;;;;61.08;30.40;;;3.40;99.90;;;;;;4999473;28;20489;-75
2023/01/04 02:03:22;;;;;;;70.85;30.95;;;3.40;99.90;;;;;;5014122;28;20077;-73
2023/01/04 02:06:11;;;;;;;81.60;32.50;;;3.20;99.90;;;;;;5018824;28;20049;-74
2023/01/04 02:08:41;;;;;;;67.20;31.67;;;3.20;99.90;;;;;;5035538;28;20037;-78
2023/01/04 02:11:13;;;;;;;84.90;32.95;;;3.20;99.90;;;;;;5003508;28;20501;-78
2023/01/04 02:17:06;;;;;;;66.95;31.73;;;3.00;99.90;;;;;;5035011;28;20404;-77
2023/01/04 02:19:56;;;;;;;67.27;31.37;;;3.00;99.90;;;;;;4983355;28;20084;-76
2023/01/04 02:22:48;;;;;;;65.40;30.20;;;2.90;99.90;;;;;;5007579;28;20362;-76
2023/01/04 02:25:57;;;;;;;77.50;31.15;;;2.80;99.90;;;;;;5002289;28;20053;-78
2023/01/04 02:29:07;;;;;;;79.47;30.55;;;2.90;99.90;;;;;;5001542;28;20056;-77
2023/01/04 02:31:55;;;;;;;71.28;29.42;;;2.80;99.90;;;;;;5034692;28;20057;-75
2023/01/04 02:34:41;;;;;;;76.15;30.85;;;2.90;99.90;;;;;;5035122;28;20401;-74
2023/01/04 02:37:26;;;;;;;63.58;29.25;;;2.90;99.90;;;;;;5035934;28;20049;-76
2023/01/04 02:40:25;;;;;;;64.50;29.92;;;2.80;99.90;;;;;;5035772;28;20073;-81
2023/01/04 02:46:22;;;;;;;62.40;30.10;;;2.80;99.90;;;;;;5035871;28;20380;-74
2023/01/04 02:51:42;;;;;;;73.72;30.88;;;2.90;99.90;;;;;;5017440;28;20049;-75
2023/01/04 02:54:17;;;;;;;72.05;31.15;;;2.90;99.90;;;;;;5018308;28;20050;-80
2023/01/04 02:57:00;;;;;;;92.03;31.48;;;2.80;99.90;;;;;;5035412;28;20042;-74
2023/01/04 02:59:38;;;;;;;73.13;31.33;;;2.80;99.90;;;;;;5019202;28;20037;-75
2023/01/04 03:08:30;;;;;;;87.22;32.85;;;2.80;99.90;;;;;;5017740;28;20052;-75
2023/01/04 03:14:15;;;;;;;65.28;30.40;;;3.00;99.90;;;;;;5034868;28;20046;-82
2023/01/04 03:17:03;;;;;;;66.05;31.70;;;3.00;99.90;;;;;;5000700;28;20049;-75
2023/01/04 03:19:53;;;;;;;79.32;31.00;;;2.90;99.90;;;;;;4984087;28;20402;-77
2023/01/04 03:43:08;;;;;;;63.73;29.83;;;3.00;99.90;;;;;;5013650;28;20121;-74
2023/01/04 03:49:32;;;;;;;68.22;30.17;;;3.10;99.90;;;;;;5014060;28;20394;-73
2023/01/04 03:52:04;;;;;;;65.90;29.85;;;3.00;99.90;;;;;;4996895;28;20382;-74
2023/01/04 03:54:40;;;;;;;69.65;30.55;;;2.80;99.90;;;;;;5014012;28;20057;-77
2023/01/04 03:57:10;;;;;;;60.53;30.17;;;2.90;99.90;;;;;;4979749;28;20046;-74
2023/01/04 03:59:54;;;;;;;63.38;29.90;;;2.80;99.90;;;;;;4996575;28;20496;-83
2023/01/04 04:02:31;;;;;;;73.78;31.15;;;2.90;99.90;;;;;;5014261;28;20410;-79
2023/01/04 04:10:36;;;;;;;62.83;29.83;;;2.60;99.90;;;;;;5013900;28;20037;-81
2023/01/04 04:13:08;;;;;;;58.15;28.98;;;2.80;99.90;;;;;;4996702;28;20053;-74
2023/01/04 04:15:38;;;;;;;70.28;31.73;;;2.80;99.90;;;;;;4997283;28;20477;-74
2023/01/04 04:18:12;;;;;;;64.43;29.20;;;2.90;99.90;;;;;;4996288;28;20045;-83
2023/01/04 04:20:59;;;;;;;78.68;33.22;;;2.80;99.90;;;;;;4980913;28;20399;-77
2023/01/04 04:23:26;;;;;;;78.07;31.67;;;2.80;99.90;;;;;;5013304;28;20092;-74
2023/01/04 04:25:53;;;;;;;58.72;30.55;;;2.70;99.90;;;;;;5014492;28;20068;-82
2023/01/04 04:28:20;;;;;;;63.72;32.13;;;2.80;99.90;;;;;;5013850;28;20041;-74
2023/01/04 04:30:51;;;;;;;63.60;31.42;;;2.80;99.90;;;;;;5014058;28;20042;-73
2023/01/04 04:33:21;;;;;;;;;;;3.00;99.90;;;;;;5015383;28;20514;-75
2023/01/04 04:35:53;;;;;;;56.88;28.05;;;3.00;99.90;;;;;;4980879;28;20024;-75
2023/01/04 04:38:23;;;;;;;64.30;30.38;;;2.90;99.90;;;;;;5015035;28;20054;-82
2023/01/04 04:43:38;;;;;;;66.35;28.25;;;2.80;99.90;;;;;;5014107;28;20045;-75
2023/01/04 04:46:12;;;;;;;66.97;29.02;;;2.80;99.90;;;;;;5013080;28;20046;-77
2023/01/04 04:48:39;;;;;;;70.38;30.38;;;2.80;99.90;;;;;;5013942;28;20073;-76
2023/01/04 04:51:06;;;;;;;71.85;30.63;;;2.80;99.90;;;;;;5015030;28;20408;-82
2023/01/04 04:53:37;;;;;;;84.72;30.80;;;2.70;99.90;;;;;;4985514;28;20549;-75
2023/01/04 04:56:07;;;;;;;115.85;30.75;;;2.70;99.90;;;;;;5020078;28;20041;-84
2023/01/04 04:59:03;;;;;;;57.00;28.42;;;2.50;99.90;;;;;;4995138;28;20065;-81
2023/01/04 05:01:35;;;;;;;70.55;31.60;;;2.60;99.90;;;;;;5018350;28;20145;-76
2023/01/04 05:04:04;;;;;;;135.65;35.00;;;2.70;99.90;;;;;;4984469;28;20050;-81
2023/01/04 05:06:57;;;;;;;72.50;30.60;;;2.70;99.90;;;;;;5002795;28;20054;-80
2023/01/04 05:09:29;;;;;;;67.22;29.25;;;2.70;99.90;;;;;;4984569;28;20048;-75
2023/01/04 05:14:44;;;;;;;63.53;30.33;;;2.70;99.90;;;;;;5001413;28;20068;-76
2023/01/04 05:17:11;;;;;;;57.53;28.83;;;2.80;99.90;;;;;;5016575;28;20034;-74
2023/01/04 05:19:41;;;;;;;86.97;28.65;;;2.80;99.90;;;;;;5017664;28;20057;-82
2023/01/04 05:22:10;;;;;;;62.58;28.52;;;2.70;99.90;;;;;;5016666;28;20100;-74
2023/01/04 05:24:37;;;;;;;57.20;29.52;;;2.70;99.90;;;;;;5017255;28;20045;-73
2023/01/04 05:27:07;;;;;;;52.03;27.83;;;2.80;99.90;;;;;;5000107;28;20137;-83
2023/01/04 05:33:00;;;;;;;64.45;30.35;;;2.90;99.90;;;;;;5003306;28;20436;-74
2023/01/04 05:35:27;;;;;;;53.88;27.70;;;2.90;99.90;;;;;;5017728;28;20085;-74
2023/01/04 05:37:58;;;;;;;60.03;28.40;;;3.00;99.90;;;;;;5000852;28;20042;-74
2023/01/04 05:40:30;;;;;;;91.18;27.95;;;3.00;99.90;;;;;;5000217;28;20046;-81
2023/01/04 05:42:57;;;;;;;56.58;28.38;;;2.80;99.90;;;;;;4984277;28;20046;-74
2023/01/04 05:45:27;;;;;;;69.18;28.58;;;2.60;99.90;;;;;;5015615;28;20054;-81
2023/01/04 05:48:03;;;;;;;118.38;29.25;;;2.70;99.90;;;;;;4999435;28;20042;-75
2023/01/04 05:50:33;;;;;;;;;;;2.70;99.90;;;;;;4983591;28;20096;-73
2023/01/04 05:53:17;;;;;;;58.92;27.63;;;2.70;99.90;;;;;;5014670;28;20024;-78
2023/01/04 05:55:59;;;;;;;109.55;29.48;;;2.80;99.90;;;;;;4985033;28;20133;-81
2023/01/04 05:58:26;;;;;;;58.13;27.73;;;2.60;99.90;;;;;;5016279;28;20042;-75
2023/01/04 06:00:53;;;;;;;60.22;27.63;;;2.70;99.90;;;;;;5016664;28;20042;-75
2023/01/04 06:03:21;;;;;;;60.72;28.73;;;2.80;99.90;;;;;;5017401;28;20053;-72
2023/01/04 06:05:54;;;;;;;65.82;28.30;;;2.80;99.90;;;;;;5018039;28;20042;-73
2023/01/04 06:08:25;;;;;;;71.95;31.70;;;3.00;99.90;;;;;;5002613;28;20192;-72
2023/01/04 06:10:53;;;;;;;149.77;70.05;;;3.30;99.90;;;;;;5017855;28;20444;-74
2023/01/04 06:13:24;;;;;;;126.22;43.50;;;3.50;99.90;;;;;;5002209;28;20149;-83
2023/01/04 06:15:54;;;;;;;113.45;54.50;;;3.70;99.90;;;;;;4984105;28;20050;-73
2023/01/04 06:18:21;;;;;;;63.03;33.25;;;3.80;99.90;;;;;;5018781;28;20046;-81
2023/01/04 06:21:00;;;;;;;61.50;28.90;;;3.70;99.90;;;;;;4999479;28;20147;-73
2023/01/04 06:23:58;;;;;;;55.28;29.10;;;3.40;99.90;;;;;;4998903;28;20054;-75
2023/01/04 06:26:28;;;;;;;56.90;28.23;;;3.10;99.90;;;;;;4984071;28;20073;-81
2023/01/04 06:28:55;;;;;;;63.20;29.05;;;2.90;99.90;;;;;;5016207;28;20042;-75
2023/01/04 06:31:22;;;;;;;66.03;29.20;;;2.80;99.90;;;;;;5015466;28;20045;-74
2023/01/04 06:33:50;;;;;;;96.82;48.42;;;2.70;99.90;;;;;;5015252;28;20041;-71
2023/01/04 06:36:18;;;;;;;86.63;43.83;;;2.90;99.90;;;;;;5015077;28;20038;-72
2023/01/04 06:38:47;;;;;;;107.00;50.38;;;3.00;99.90;;;;;;5015182;28;20077;-73
2023/01/04 06:41:14;;;;;;;70.03;32.55;;;3.10;99.90;;;;;;5015086;28;20053;-72
2023/01/04 06:43:42;;;;;;;55.95;29.02;;;3.10;99.90;;;;;;4995909;28;20041;-71
2023/01/04 06:46:09;;;;;;;66.50;29.73;;;3.00;99.90;;;;;;5014578;28;20041;-71
2023/01/04 06:48:40;;;;;;;63.58;28.88;;;2.90;99.90;;;;;;4996949;28;20046;-71
2023/01/04 06:51:07;;;;;;;54.03;27.42;;;2.80;99.90;;;;;;4981665;28;20160;-76
2023/01/04 06:53:35;;;;;;;55.58;29.05;;;2.80;99.90;;;;;;4979780;28;20489;-75
2023/01/04 06:56:02;;;;;;;54.95;30.10;;;2.70;99.90;;;;;;4981638;28;20049;-76
2023/01/04 06:58:30;;;;;;;54.50;28.33;;;2.70;99.90;;;;;;5011750;28;20398;-72
2023/01/04 07:00:57;;;;;;;56.55;29.00;;;2.60;99.90;;;;;;4979367;28;20401;-76
2023/01/04 07:03:25;;;;;;;70.90;31.70;;;2.60;99.90;;;;;;4995246;28;20696;-73
2023/01/04 07:05:52;;;;;;;63.65;29.10;;;2.60;99.90;;;;;;5012695;28;20034;-73
2023/01/04 07:08:19;;;;;;;58.63;28.15;;;2.40;99.90;;;;;;5012459;28;20387;-73
2023/01/04 07:10:47;;;;;;;72.18;30.52;;;2.50;99.90;;;;;;4995240;28;20042;-71
2023/01/04 07:13:22;;;;;;;69.78;28.23;;;2.60;99.90;;;;;;5012129;28;20057;-77
2023/01/04 07:15:49;;;;;;;67.47;29.88;;;2.60;99.90;;;;;;5013767;28;20038;-71
2023/01/04 07:18:17;;;;;;;62.70;27.85;;;2.50;99.90;;;;;;4997275;28;20053;-73
2023/01/04 07:20:49;;;;;;;62.50;27.98;;;2.60;99.90;;;;;;4996955;28;20504;-73
2023/01/04 07:23:22;;;;;;;65.70;28.90;;;2.60;99.90;;;;;;4996267;28;20429;-71
2023/01/04 07:25:55;;;;;;;52.08;28.38;;;2.50;99.90;;;;;;4997805;28;20050;-73
2023/01/04 07:31:13;;;;;;;80.03;28.67;;;2.80;99.90;;;;;;5014906;28;20430;-74
2023/01/04 07:33:43;;;;;;;48.53;26.40;;;2.70;99.90;;;;;;5015410;28;20046;-71
2023/01/04 07:36:11;;;;;;;;;;;2.70;99.90;;;;;;4982299;28;20042;-71
2023/01/04 07:38:38;;;;;;;58.70;26.98;;;2.70;99.90;;;;;;5014628;28;19922;-76
2023/01/04 07:41:05;;;;;;;57.35;27.58;;;2.80;99.90;;;;;;5014679;28;20038;-71
2023/01/04 07:43:32;;;;;;;58.92;28.15;;;2.80;99.90;;;;;;5014003;28;20409;-72
2023/01/04 07:46:06;;;;;;;50.67;27.08;;;2.60;99.90;;;;;;4982308;28;20108;-73
2023/01/04 07:48:40;;;;;;;65.05;28.75;;;2.70;99.90;;;;;;4994729;28;20053;-74
2023/01/04 07:51:15;;;;;;;66.38;30.42;;;2.60;99.90;;;;;;4996628;28;20532;-72
2023/01/04 07:53:55;;;;;;;110.38;30.60;;;2.70;99.90;;;;;;4978925;28;20042;-75
2023/01/04 07:56:30;;;;;;;54.15;29.77;;;2.80;99.90;;;;;;4997375;28;20046;-71
2023/01/04 07:58:59;;;;;;;52.97;28.67;;;2.90;99.90;;;;;;4981798;28;20136;-70
2023/01/04 08:01:27;;;;;;;58.22;29.48;;;3.00;99.90;;;;;;4980717;28;20042;-77
2023/01/04 08:03:54;;;;;;;56.63;30.92;;;3.00;99.90;;;;;;5013897;28;20050;-80
2023/01/04 08:06:27;;;;;;;56.38;30.15;;;3.00;99.90;;;;;;5015353;28;20038;-77
2023/01/04 08:08:54;;;;;;;53.95;30.10;;;3.20;99.90;;;;;;4977960;28;20054;-73
2023/01/04 08:11:23;;;;;;;51.58;27.73;;;3.30;99.90;;;;;;4996353;28;20042;-74
2023/01/04 08:13:58;;;;;;;55.95;28.77;;;3.30;99.90;;;;;;4993998;28;20077;-72
2023/01/04 08:16:36;;;;;;;47.33;29.42;;;3.40;99.90;;;;;;4994554;28;20039;-78
2023/01/04 08:19:12;;;;;;;56.47;28.95;;;3.30;99.90;;;;;;5009801;28;20129;-78
2023/01/04 08:21:45;;;;;;;61.72;29.92;;;3.40;99.90;;;;;;4994854;28;20046;-74
2023/01/04 08:24:18;;;;;;;55.65;29.58;;;3.40;99.90;;;;;;4994376;28;20058;-72
2023/01/04 08:26:49;;;;;;;56.55;30.15;;;3.50;99.90;;;;;;4997063;28;20050;-78
2023/01/04 08:29:16;;;;;;;56.90;29.65;;;3.70;99.90;;;;;;4982176;28;20058;-73
2023/01/04 08:31:46;;;;;;;50.60;28.55;;;3.80;99.90;;;;;;4999763;28;20054;-71
2023/01/04 08:34:14;;;;;;;55.72;29.65;;;3.80;99.90;;;;;;5000819;28;20050;-78
2023/01/04 08:36:49;;;;;;;50.65;30.27;;;3.90;99.90;;;;;;4999920;28;20063;-72
2023/01/04 08:39:32;;;;;;;55.67;30.13;;;4.00;99.90;;;;;;4998743;28;20050;-76
2023/01/04 08:42:03;;;;;;;56.03;30.65;;;4.10;99.90;;;;;;4984248;28;20046;-79
2023/01/04 08:44:48;;;;;;;59.10;30.02;;;3.90;99.90;;;;;;4999459;28;20062;-77
2023/01/04 08:47:21;;;;;;;60.90;32.13;;;4.00;99.90;;;;;;4999038;28;20379;-76
2023/01/04 08:49:50;;;;;;;55.97;28.60;;;4.00;99.90;;;;;;4997026;28;20046;-77
2023/01/04 08:52:21;;;;;;;63.25;31.73;;;3.90;99.90;;;;;;4981879;28;20081;-74
2023/01/04 08:54:49;;;;;;;81.75;38.08;;;4.10;99.90;;;;;;4981476;28;20149;-76
2023/01/04 08:57:17;;;;;;;64.95;31.80;;;4.00;99.90;;;;;;5000049;28;20098;-77
2023/01/04 08:59:51;;;;;;;59.60;32.92;;;3.90;99.90;;;;;;4999132;28;20038;-74
2023/01/04 09:02:31;;;;;;;;;;;4.20;99.90;;;;;;4983294;28;20395;-75
2023/01/04 09:05:05;;;;;;;58.47;31.10;;;4.40;99.90;;;;;;4997704;28;20329;-73
2023/01/04 09:07:33;;;;;;;57.58;31.25;;;4.60;99.90;;;;;;5010027;28;20058;-79
2023/01/04 09:10:00;;;;;;;54.70;31.15;;;4.70;99.90;;;;;;5020779;28;20132;-77
2023/01/04 09:12:47;;;;;;;58.47;34.95;;;4.80;99.90;;;;;;5018975;28;20050;-73
2023/01/04 09:15:24;;;;;;;59.83;32.35;;;4.80;99.90;;;;;;4987423;28;20049;-76
2023/01/04 09:17:53;;;;;;;65.22;34.53;;;4.90;99.90;;;;;;5018007;28;20056;-72
2023/01/04 09:20:44;;;;;;;65.13;34.53;;;4.80;99.90;;;;;;4989462;28;20053;-73
2023/01/04 09:23:15;;;;;;;60.30;34.25;;;4.80;99.90;;;;;;5001802;28;20041;-78
2023/01/04 09:25:42;;;;;;;61.50;33.53;;;4.90;99.90;;;;;;5019168;28;20050;-76
2023/01/04 09:28:09;;;;;;;68.72;34.30;;;5.00;99.90;;;;;;5018337;28;20442;-77
2023/01/04 09:30:37;;;;;;;62.95;34.95;;;5.10;99.90;;;;;;5017183;28;20050;-71
2023/01/04 09:33:04;;;;;;;70.40;35.42;;;5.00;99.90;;;;;;5017383;28;20485;-74
2023/01/04 09:35:32;;;;;;;65.50;34.08;;;5.20;99.90;;;;;;5017813;28;20043;-75
2023/01/04 09:37:59;;;;;;;67.63;36.20;;;5.20;99.90;;;;;;5015691;28;20046;-76
2023/01/04 09:40:45;;;;;;;71.57;36.30;;;5.30;99.90;;;;;;5016570;28;20527;-76
2023/01/04 09:43:21;;;;;;;69.38;36.47;;;5.20;99.90;;;;;;4983550;28;20417;-78
2023/01/04 09:45:53;;;;;;;67.13;36.13;;;5.00;99.90;;;;;;5016530;28;20058;-79
2023/01/04 09:48:30;;;;;;;71.50;36.50;;;5.10;99.90;;;;;;5017287;28;20037;-74
2023/01/04 09:51:06;;;;;;;70.13;36.85;;;5.40;99.90;;;;;;4983915;28;20045;-69
2023/01/04 09:53:39;;;;;;;69.15;36.30;;;5.50;99.90;;;;;;4984788;28;20060;-78
2023/01/04 09:56:32;;;;;;;70.13;37.80;;;5.50;99.90;;;;;;5017840;28;20070;-75
2023/01/04 09:59:08;;;;;;;70.03;37.03;;;5.70;99.90;;;;;;5016351;28;20038;-73
2023/01/04 10:01:52;;;;;;;70.28;37.22;;;5.50;99.90;;;;;;4983849;28;20058;-72
2023/01/04 10:04:45;;;;;;;78.25;36.78;;;5.50;99.90;;;;;;4983733;28;20053;-73
2023/01/04 10:07:31;;;;;;;72.68;37.35;;;5.30;99.90;;;;;;4995302;28;20050;-72
2023/01/04 10:10:05;;;;;;;76.95;38.72;;;5.40;99.90;;;;;;4978556;28;20497;-74
2023/01/04 10:12:48;;;;;;;77.80;39.58;;;5.70;99.90;;;;;;4995468;28;20406;-71
2023/01/04 10:15:49;;;;;;;70.63;37.72;;;5.80;99.90;;;;;;4996231;28;20046;-74
2023/01/04 10:18:44;;;;;;;81.32;42.75;;;5.70;99.90;;;;;;4994450;28;20042;-72
2023/01/04 10:21:59;;;;;;;75.10;39.42;;;6.40;99.90;;;;;;4981589;28;20054;-70
2023/01/04 10:24:56;;;;;;;75.82;41.67;;;6.90;99.90;;;;;;4978110;28;20046;-72
2023/01/04 10:27:28;;;;;;;78.10;42.90;;;6.70;99.90;;;;;;4978504;28;20406;-74
2023/01/04 10:30:24;;;;;;;79.20;42.53;;;6.50;99.90;;;;;;4995147;28;20382;-71
2023/01/04 10:33:08;;;;;;;73.05;40.38;;;6.40;99.90;;;;;;4979232;28;20046;-73
2023/01/04 10:35:43;;;;;;;74.03;42.17;;;6.30;99.90;;;;;;4995728;28;20429;-71
2023/01/04 10:38:39;;;;;;;87.45;42.00;;;6.50;99.90;;;;;;4994873;28;20042;-72
2023/01/04 10:41:25;;;;;;;79.88;40.17;;;6.80;99.90;;;;;;4979434;28;20056;-72
2023/01/04 10:44:09;;;;;;;79.03;40.85;;;6.90;99.90;;;;;;4979160;28;20479;-71
2023/01/04 10:46:48;;;;;;;84.03;44.22;;;7.50;99.90;;;;;;4993264;28;20042;-76
2023/01/04 10:49:27;;;;;;;84.03;43.72;;;7.80;99.90;;;;;;4995173;28;20101;-74
2023/01/04 10:52:20;;;;;;;86.05;45.60;;;7.90;99.90;;;;;;4978880;28;20402;-72
2023/01/04 10:55:06;;;;;;;84.43;46.30;;;7.70;99.90;;;;;;4977959;28;20046;-72
2023/01/04 10:57:58;;;;;;;89.03;48.15;;;7.70;99.90;;;;;;4979312;28;20512;-70
2023/01/04 11:00:32;;;;;;;99.50;52.88;;;7.80;99.90;;;;;;4979604;28;20046;-79
2023/01/04 11:03:07;;;;;;;94.60;52.28;;;7.90;99.90;;;;;;4996424;28;20557;-74
2023/01/04 11:06:01;;;;;;;106.53;58.03;;;8.00;99.90;;;;;;4995994;28;20049;-73
2023/01/04 11:08:49;;;;;;;118.32;61.75;;;8.40;99.90;;;;;;5011529;28;20132;-73
2023/01/04 11:11:30;;;;;;;108.57;56.85;;;8.90;99.90;;;;;;4982435;28;20046;-74
2023/01/04 11:14:06;;;;;;;118.78;61.15;;;9.60;99.90;;;;;;4997430;28;20046;-71
2023/01/04 11:16:50;;;;;;;108.30;58.05;;;10.00;99.90;;;;;;4981229;28;20058;-75
2023/01/04 11:19:21;;;;;;;111.75;58.17;;;10.40;99.90;;;;;;4998728;28;20382;-72
2023/01/04 11:22:10;;;;;;;113.65;60.40;;;10.40;99.90;;;;;;4997051;28;20404;-73
2023/01/04 11:24:47;;;;;;;105.53;58.92;;;9.50;99.90;;;;;;4981243;28;20401;-71
2023/01/04 11:28:19;;;;;;;112.35;65.60;;;9.80;99.90;;;;;;4985168;28;20050;-77
2023/01/04 11:30:58;;;;;;;112.82;63.95;;;10.30;99.90;;;;;;4976817;28;20038;-76
2023/01/04 11:34:07;;;;;;;110.85;63.75;;;10.50;99.90;;;;;;5006374;28;20046;-74
2023/01/04 11:36:41;;;;;;;115.70;62.85;;;10.00;99.90;;;;;;4996084;28;20042;-72
2023/01/04 11:39:24;;;;;;;108.32;61.60;;;10.80;99.90;;;;;;4973236;28;20054;-73
2023/01/04 11:41:57;;;;;;;116.95;65.45;;;11.30;99.90;;;;;;4975068;28;20040;-72
2023/01/04 11:44:41;;;;;;;106.72;63.20;;;11.40;99.90;;;;;;4993130;28;20084;-73
2023/01/04 11:47:29;;;;;;;111.35;63.83;;;11.80;99.90;;;;;;4972932;28;20056;-72
2023/01/04 11:50:30;;;;;;;106.18;62.13;;;11.80;99.90;;;;;;4966931;28;20043;-72
2023/01/04 11:53:32;;;;;;;107.85;64.20;;;12.10;99.90;;;;;;4985224;28;20054;-74
2023/01/04 11:56:18;;;;;;;108.45;62.65;;;12.00;99.90;;;;;;4984239;28;20046;-74
2023/01/04 11:59:14;;;;;;;105.25;62.40;;;12.30;99.90;;;;;;4992026;28;20406;-78
2023/01/04 12:02:32;;;;;;;111.72;62.10;;;12.50;99.90;;;;;;5009772;28;20046;-74
2023/01/04 12:05:41;;;;;;;101.00;61.58;;;12.40;99.90;;;;;;4980218;28;20062;-76
2023/01/04 12:08:31;;;;;;;101.40;59.28;;;12.40;99.90;;;;;;4974367;28;20117;-77
2023/01/04 12:11:01;;;;;;;104.38;61.55;;;12.80;99.90;;;;;;4976228;28;20047;-80
2023/01/04 12:13:38;;;;;;;100.90;58.10;;;13.10;99.90;;;;;;4975580;28;20368;-73
2023/01/04 12:17:26;;;;;;;101.35;58.13;;;13.50;99.90;;;;;;4995756;28;20269;-74
2023/01/04 12:20:19;;;;;;;95.50;58.97;;;13.50;99.90;;;;;;4972855;28;20530;-77
2023/01/04 12:23:25;;;;;;;92.88;58.03;;;13.40;99.90;;;;;;4983365;28;20047;-71
2023/01/04 12:26:08;;;;;;;103.88;58.80;;;13.60;99.90;;;;;;4955023;28;20050;-72
2023/01/04 12:29:23;;;;;;;102.78;61.22;;;13.50;99.90;;;;;;4984026;28;20057;-73
2023/01/04 12:32:06;;;;;;;106.35;59.95;;;13.70;99.90;;;;;;4972314;28;20073;-75
2023/01/04 12:34:48;;;;;;;101.95;60.22;;;13.80;99.90;;;;;;4957799;28;20635;-79
2023/01/04 12:37:48;;;;;;;103.00;64.07;;;14.10;99.90;;;;;;4972568;28;20046;-73
2023/01/04 12:40:46;;;;;;;103.68;61.45;;;14.60;99.90;;;;;;4974180;28;20080;-76
2023/01/04 12:43:32;;;;;;;103.20;63.58;;;14.60;99.90;;;;;;4991791;28;20089;-78
2023/01/04 12:50:07;;;;;;;117.88;70.00;;;14.30;99.90;;;;;;4969244;28;20719;-73
2023/01/04 12:53:04;;;;;;;109.03;64.07;;;14.40;99.90;;;;;;4960857;28;20577;-76
2023/01/04 12:56:09;;;;;;;97.03;62.80;;;14.90;99.90;;;;;;4968999;28;20541;-73
2023/01/04 12:59:06;;;;;;;99.50;62.78;;;15.60;99.90;;;;;;4961835;28;20043;-71
2023/01/04 13:02:17;;;;;;;94.40;62.90;;;16.30;97.50;;;;;;4982275;28;20042;-72
2023/01/04 13:04:48;;;;;;;97.47;63.88;;;16.30;96.10;;;;;;4964915;28;20061;-73
2023/01/04 13:07:25;;;;;;;86.57;59.15;;;15.80;96.70;;;;;;4995676;28;20045;-72
2023/01/04 13:10:26;;;;;;;94.15;60.80;;;15.30;98.20;;;;;;4971843;28;20050;-72
2023/01/04 13:13:35;;;;;;;95.43;59.28;;;14.00;99.90;;;;;;4983419;28;20057;-74
2023/01/04 13:16:25;;;;;;;97.68;60.05;;;13.30;99.90;;;;;;5019175;28;20042;-79
2023/01/04 13:19:00;;;;;;;109.53;66.43;;;13.00;99.90;;;;;;5013076;28;20034;-73
2023/01/04 13:21:54;;;;;;;109.45;64.60;;;12.70;99.90;;;;;;4983417;28;20050;-72
2023/01/04 13:24:34;;;;;;;105.28;61.88;;;12.40;99.90;;;;;;4996932;28;20208;-73
2023/01/04 13:27:07;;;;;;;104.75;62.30;;;12.30;99.90;;;;;;5015929;28;20053;-76
2023/01/04 13:29:42;;;;;;;92.30;54.78;;;12.20;99.90;;;;;;5011184;28;20572;-74
2023/01/04 13:32:22;;;;;;;85.50;49.92;;;12.00;99.90;;;;;;4975659;28;20121;-72
2023/01/04 13:35:13;;;;;;;88.20;46.25;;;11.90;99.90;;;;;;5010399;28;20050;-73
2023/01/04 13:37:59;;;;;;;75.45;43.95;;;11.90;99.90;;;;;;4998276;28;20143;-83
2023/01/04 13:40:36;;;;;;;79.70;44.38;;;11.70;99.90;;;;;;4965481;28;20105;-78
2023/01/04 13:43:06;;;;;;;79.50;44.65;;;11.60;99.90;;;;;;4982776;28;20049;-75
2023/01/04 13:45:57;;;;;;;86.50;47.17;;;11.60;99.90;;;;;;4982782;28;20042;-79
2023/01/04 13:48:40;;;;;;;80.18;46.47;;;11.50;99.90;;;;;;5015740;28;20042;-73
2023/01/04 13:51:30;;;;;;;92.05;50.30;;;11.50;99.90;;;;;;4998229;28;20050;-77
2023/01/04 13:54:26;;;;;;;90.47;48.05;;;11.50;99.90;;;;;;5014407;28;20053;-73
2023/01/04 13:57:08;;;;;;;88.63;49.28;;;11.40;99.90;;;;;;4983386;28;20449;-72
2023/01/04 13:59:47;;;;;;;89.22;49.00;;;11.30;99.90;;;;;;4991053;28;20093;-72
2023/01/04 14:02:23;;;;;;;84.05;47.72;;;11.30;99.90;;;;;;4980208;28;20076;-76
2023/01/04 14:04:51;;;;;;;90.50;48.03;;;11.20;99.90;;;;;;5006072;28;20038;-73
2023/01/04 14:07:35;;;;;;;94.82;49.97;;;11.40;99.90;;;;;;5012438;28;20092;-73
2023/01/04 14:10:18;;;;;;;92.68;50.17;;;12.00;99.90;;;;;;4978580;28;20050;-73
2023/01/04 14:12:49;;;;;;;92.78;50.40;;;14.50;99.90;;;;;;4992614;28;20054;-73
2023/01/04 14:15:34;;;;;;;91.35;51.28;;;14.90;99.90;;;;;;5015090;28;20054;-73
2023/01/04 14:18:47;;;;;;;86.70;52.22;;;14.80;99.90;;;;;;4996872;28;20095;-73
2023/01/04 14:21:37;;;;;;;84.78;52.55;;;14.50;99.90;;;;;;4996804;28;20046;-76
2023/01/04 14:24:53;;;;;;;;;;;;;;;;;;;;;
2023/01/04 14:27:52;;;;;;;85.13;51.58;;;15.00;99.90;;;;;;5013470;28;20144;-75
2023/01/04 14:30:20;;;;;;;77.25;46.10;;;14.70;99.90;;;;;;5016996;28;20038;-73
2023/01/04 14:33:06;;;;;;;;;;;;;;;;;;;;;
2023/01/04 14:36:31;;;;;;;61.97;35.80;;;13.70;99.90;;;;;;4992657;28;20046;-73
2023/01/04 14:39:25;;;;;;;54.90;34.43;;;13.60;99.90;;;;;;4998352;28;20061;-73
2023/01/04 14:42:00;;;;;;;67.00;38.88;;;12.70;99.90;;;;;;5009397;28;20488;-75
2023/01/04 14:44:29;;;;;;;56.70;34.63;;;12.00;99.90;;;;;;5024521;28;20069;-76